createdAt,value
2018-04-14T00:00:14.678Z,8.70
2018-04-14T00:02:42.165Z,9.50
2018-04-14T00:05:08.911Z,8.67
2018-04-14T00:07:35.646Z,10.40
2018-04-14T00:10:02.429Z,12.10
2018-04-14T00:12:29.176Z,9.67
2018-04-14T00:14:56.646Z,11.57
2018-04-14T00:17:23.398Z,9.63
2018-04-14T00:19:50.171Z,9.37
2018-04-14T00:22:17.039Z,11.70
2018-04-14T00:24:43.878Z,14.33
2018-04-14T00:27:10.598Z,9.03
2018-04-14T00:29:37.380Z,9.93
2018-04-14T00:32:04.878Z,10.67
2018-04-14T00:34:31.608Z,13.63
2018-04-14T00:36:58.359Z,15.67
2018-04-14T00:39:25.088Z,10.93
2018-04-14T00:41:51.811Z,12.47
2018-04-14T00:44:19.270Z,12.40
2018-04-14T00:46:46.050Z,8.67
2018-04-14T00:49:12.815Z,11.70
2018-04-14T00:51:40.500Z,8.93
2018-04-14T00:54:08.000Z,10.67
2018-04-14T00:56:34.777Z,8.43
2018-04-14T00:59:01.520Z,10.97
2018-04-14T01:01:28.276Z,16.27
2018-04-14T01:03:55.763Z,15.37
2018-04-14T01:06:22.508Z,10.67
2018-04-14T01:08:49.228Z,13.53
2018-04-14T01:11:15.983Z,6.97
2018-04-14T01:13:42.703Z,5.67
2018-04-14T01:16:09.433Z,10.17
2018-04-14T01:18:36.905Z,8.27
2018-04-14T01:21:03.686Z,8.80
2018-04-14T01:23:30.424Z,8.00
2018-04-14T01:25:57.156Z,9.97
2018-04-14T01:28:23.889Z,8.03
2018-04-14T01:30:50.591Z,10.23
2018-04-14T01:33:18.046Z,7.97
2018-04-14T01:35:45.516Z,9.40
2018-04-14T01:38:12.224Z,12.60
2018-04-14T01:40:39.708Z,9.40
2018-04-14T01:43:06.466Z,12.77
2018-04-14T01:45:33.203Z,10.23
2018-04-14T01:47:59.931Z,10.67
2018-04-14T01:50:26.666Z,10.57
2018-04-14T01:52:53.410Z,8.43
2018-04-14T01:55:20.139Z,11.27
2018-04-14T01:57:47.615Z,9.73
2018-04-14T02:00:14.348Z,11.10
2018-04-14T02:02:41.084Z,10.40
2018-04-14T02:05:07.838Z,9.50
2018-04-14T02:07:34.570Z,9.53
2018-04-14T02:10:01.322Z,10.40
2018-04-14T02:12:28.056Z,10.73
2018-04-14T02:14:54.778Z,8.83
2018-04-14T02:17:21.510Z,10.07
2018-04-14T02:19:49.895Z,13.37
2018-04-14T02:22:16.644Z,9.23
2018-04-14T02:24:43.388Z,7.17
2018-04-14T02:27:10.110Z,8.60
2018-04-14T02:29:36.848Z,7.47
2018-04-14T02:32:03.591Z,8.57
2018-04-14T02:34:30.383Z,7.10
2018-04-14T02:36:57.132Z,12.20
2018-04-14T02:39:23.844Z,14.20
2018-04-14T02:41:50.596Z,10.70
2018-04-14T02:44:17.318Z,12.73
2018-04-14T02:46:44.075Z,10.57
2018-04-14T02:49:10.803Z,12.27
2018-04-14T02:51:37.538Z,9.57
2018-04-14T02:54:04.288Z,12.23
2018-04-14T02:56:31.039Z,7.60
2018-04-14T02:58:57.748Z,6.80
2018-04-14T03:01:24.489Z,12.87
2018-04-14T03:03:51.218Z,9.83
2018-04-14T03:06:17.996Z,6.57
2018-04-14T03:08:44.731Z,6.87
2018-04-14T03:11:11.476Z,11.17
2018-04-14T03:13:38.203Z,12.90
2018-04-14T03:16:04.943Z,13.57
2018-04-14T03:18:31.676Z,10.03
2018-04-14T03:20:58.428Z,11.03
2018-04-14T03:23:25.161Z,12.80
2018-04-14T03:25:51.943Z,7.63
2018-04-14T03:28:19.403Z,17.63
2018-04-14T03:30:46.880Z,26.87
2018-04-14T03:33:13.603Z,13.27
2018-04-14T03:35:41.110Z,10.30
2018-04-14T03:38:07.875Z,8.67
2018-04-14T03:40:34.598Z,9.20
2018-04-14T03:43:01.356Z,9.87
2018-04-14T03:45:28.122Z,8.03
2018-04-14T03:47:54.887Z,15.30
2018-04-14T03:50:21.616Z,10.80
2018-04-14T03:52:48.380Z,9.67
2018-04-14T03:55:15.178Z,7.17
2018-04-14T03:57:42.636Z,7.17
2018-04-14T04:00:10.156Z,11.60
2018-04-14T04:02:36.903Z,11.40
2018-04-14T04:05:03.668Z,12.17
2018-04-14T04:07:31.208Z,12.57
2018-04-14T04:09:57.963Z,12.27
2018-04-14T04:12:25.435Z,11.20
2018-04-14T04:14:52.193Z,12.40
2018-04-14T04:17:18.930Z,13.70
2018-04-14T04:20:03.875Z,11.60
2018-04-14T04:22:48.858Z,10.27
2018-04-14T04:25:40.281Z,29.70
2018-04-14T04:28:07.092Z,16.10
2018-04-14T04:30:34.575Z,11.87
2018-04-14T04:33:01.355Z,14.83
2018-04-14T04:35:28.090Z,13.57
2018-04-14T04:37:54.828Z,10.57
2018-04-14T04:40:21.543Z,8.80
2018-04-14T04:42:48.295Z,9.43
2018-04-14T04:45:15.036Z,9.37
2018-04-14T04:47:41.786Z,8.43
2018-04-14T04:50:08.546Z,10.67
2018-04-14T04:52:35.276Z,13.87
2018-04-14T04:55:02.026Z,11.40
2018-04-14T04:57:28.766Z,8.60
2018-04-14T04:59:56.288Z,4.43
2018-04-14T05:02:23.072Z,8.77
2018-04-14T05:04:49.813Z,11.37
2018-04-14T05:07:17.296Z,7.47
2018-04-14T05:09:44.034Z,7.07
2018-04-14T05:12:10.776Z,9.27
2018-04-14T05:14:37.525Z,7.07
2018-04-14T05:17:04.284Z,6.30
2018-04-14T05:19:31.029Z,5.23
2018-04-14T05:21:57.766Z,7.97
2018-04-14T05:24:24.584Z,5.80
2018-04-14T05:26:51.324Z,7.23
2018-04-14T05:29:18.103Z,4.83
2018-04-14T05:31:44.831Z,7.03
2018-04-14T05:34:11.586Z,3.83
2018-04-14T05:36:38.323Z,5.97
2018-04-14T05:39:06.043Z,3.97
2018-04-14T05:41:32.801Z,5.23
2018-04-14T05:43:59.546Z,5.00
2018-04-14T05:46:26.310Z,7.70
2018-04-14T05:48:53.056Z,6.23
2018-04-14T05:51:19.831Z,8.10
2018-04-14T05:53:46.583Z,6.67
2018-04-14T05:56:13.383Z,4.60
2018-04-14T05:58:40.140Z,5.43
2018-04-14T06:01:06.912Z,7.60
2018-04-14T06:03:33.698Z,7.87
2018-04-14T06:06:00.487Z,6.00
2018-04-14T06:08:27.208Z,3.80
2018-04-14T06:10:54.710Z,6.33
2018-04-14T06:13:21.473Z,5.33
2018-04-14T06:15:48.196Z,5.73
2018-04-14T06:18:14.948Z,4.63
2018-04-14T06:20:41.715Z,5.03
2018-04-14T06:23:09.208Z,11.00
2018-04-14T06:25:36.001Z,14.13
2018-04-14T06:28:02.856Z,11.87
2018-04-14T06:30:29.616Z,5.53
2018-04-14T06:32:56.370Z,18.70
2018-04-14T06:35:23.168Z,12.93
2018-04-14T06:37:50.673Z,5.83
2018-04-14T06:40:17.467Z,7.80
2018-04-14T06:42:44.933Z,10.10
2018-04-14T06:45:12.430Z,6.77
2018-04-14T06:47:39.205Z,7.37
2018-04-14T06:50:06.002Z,11.53
2018-04-14T06:52:32.788Z,8.53
2018-04-14T06:54:59.547Z,8.40
2018-04-14T06:57:27.115Z,4.40
2018-04-14T06:59:53.803Z,6.10
2018-04-14T07:02:20.521Z,9.50
2018-04-14T07:04:47.187Z,9.23
2018-04-14T07:07:14.741Z,10.63
2018-04-14T07:09:41.434Z,7.10
2018-04-14T07:12:08.119Z,8.13
2018-04-14T07:14:34.911Z,8.40
2018-04-14T07:17:21.275Z,8.30
2018-04-14T07:34:48.475Z,5.60
2018-04-14T07:37:17.417Z,11.20
2018-04-14T07:39:44.511Z,5.43
2018-04-14T07:42:12.283Z,13.33
2018-04-14T07:44:39.277Z,8.17
2018-04-14T07:47:06.295Z,8.97
2018-04-14T07:49:33.313Z,10.87
2018-04-14T07:52:01.048Z,6.80
2018-04-14T07:54:28.049Z,8.50
2018-04-14T07:56:55.065Z,7.83
2018-04-14T07:59:22.086Z,9.70
2018-04-14T08:01:49.145Z,9.60
2018-04-14T08:04:16.161Z,6.47
2018-04-14T08:06:43.673Z,7.30
2018-04-14T08:09:11.426Z,6.57
2018-04-14T08:11:38.451Z,8.43
2018-04-14T08:14:05.448Z,9.17
2018-04-14T08:16:32.443Z,8.37
2018-04-14T08:18:59.445Z,4.87
2018-04-14T08:21:26.431Z,8.07
2018-04-14T08:23:53.443Z,5.27
2018-04-14T08:26:20.463Z,8.90
2018-04-14T08:28:47.473Z,8.00
2018-04-14T08:31:14.576Z,6.20
2018-04-14T08:33:42.296Z,10.00
2018-04-14T08:36:09.357Z,9.77
2018-04-14T08:38:36.400Z,6.73
2018-04-14T08:41:03.411Z,12.90
2018-04-14T08:43:30.397Z,14.43
2018-04-14T08:45:57.387Z,11.90
2018-04-14T08:48:24.364Z,9.87
2018-04-14T08:50:51.436Z,9.63
2018-04-14T08:53:18.488Z,11.10
2018-04-14T08:55:45.484Z,9.10
2018-04-14T08:58:12.487Z,10.20
2018-04-14T09:00:40.291Z,9.10
2018-04-14T09:03:07.285Z,13.00
2018-04-14T09:05:34.296Z,18.30
2018-04-14T09:08:01.289Z,11.23
2018-04-14T09:10:28.318Z,14.57
2018-04-14T09:12:55.341Z,7.60
2018-04-14T09:15:22.296Z,9.33
2018-04-14T09:17:49.302Z,8.53
2018-04-14T09:20:16.376Z,14.90
2018-04-14T09:22:43.374Z,11.77
2018-04-14T09:25:11.157Z,11.85
2018-04-14T09:27:38.186Z,12.07
2018-04-14T09:30:05.327Z,17.85
2018-04-14T09:32:32.346Z,9.93
2018-04-14T09:34:59.354Z,11.18
2018-04-14T09:37:26.375Z,8.27
2018-04-14T09:39:53.403Z,9.82
2018-04-14T09:42:20.411Z,8.88
2018-04-14T09:44:47.407Z,12.07
2018-04-14T09:47:15.176Z,9.02
2018-04-14T09:49:42.200Z,11.23
2018-04-14T09:52:09.149Z,7.60
2018-04-14T09:54:36.148Z,10.27
2018-04-14T09:57:03.149Z,11.00
2018-04-14T09:59:30.142Z,11.33
2018-04-14T10:01:57.224Z,9.23
2018-04-14T10:04:24.271Z,12.13
2018-04-14T10:06:51.249Z,9.20
2018-04-14T10:09:18.228Z,8.10
2018-04-14T10:11:45.236Z,10.20
2018-04-14T10:14:12.259Z,11.37
2018-04-14T10:16:39.279Z,13.47
2018-04-14T10:19:06.449Z,8.37
2018-04-14T10:21:33.560Z,13.38
2018-04-14T10:24:00.550Z,7.67
2018-04-14T10:26:27.513Z,9.65
2018-04-14T10:28:54.482Z,9.13
2018-04-14T10:31:21.445Z,9.98
2018-04-14T10:33:48.402Z,10.48
2018-04-14T10:36:15.404Z,12.00
2018-04-14T10:38:42.417Z,10.63
2018-04-14T10:41:09.407Z,10.63
2018-04-14T10:43:37.135Z,10.70
2018-04-14T10:46:04.196Z,10.02
2018-04-14T10:48:31.224Z,11.98
2018-04-14T10:50:58.196Z,11.48
2018-04-14T10:53:25.167Z,11.18
2018-04-14T10:55:52.897Z,11.77
2018-04-14T10:58:19.884Z,13.60
2018-04-14T11:00:47.679Z,11.07
2018-04-14T11:03:14.664Z,7.65
2018-04-14T11:05:41.728Z,9.45
2018-04-14T11:08:08.729Z,9.37
2018-04-14T11:10:35.712Z,7.70
2018-04-14T11:13:02.737Z,9.77
2018-04-14T11:15:29.715Z,8.07
2018-04-14T11:17:57.544Z,11.40
2018-04-14T11:20:24.545Z,9.37
2018-04-14T11:22:52.324Z,9.20
2018-04-14T11:25:20.069Z,13.03
2018-04-14T11:27:47.956Z,9.77
2018-04-14T11:30:14.973Z,12.50
2018-04-14T11:32:41.999Z,6.87
2018-04-14T11:35:08.993Z,9.13
2018-04-14T11:37:36.759Z,8.47
2018-04-14T11:40:03.860Z,16.77
2018-04-14T11:42:30.879Z,11.48
2018-04-14T11:44:57.946Z,9.60
2018-04-14T11:47:24.919Z,9.07
2018-04-14T11:49:51.911Z,11.70
2018-04-14T11:52:18.943Z,8.52
2018-04-14T11:54:45.930Z,12.37
2018-04-14T11:57:12.974Z,9.93
2018-04-14T11:59:39.976Z,12.32
2018-04-14T12:02:07.004Z,11.90
2018-04-14T12:04:34.061Z,10.13
2018-04-14T12:07:01.087Z,10.48
2018-04-14T12:09:28.109Z,11.82
2018-04-14T12:11:55.196Z,12.45
2018-04-14T12:14:22.969Z,12.37
2018-04-14T12:16:50.719Z,10.77
2018-04-14T12:19:17.719Z,15.25
2018-04-14T12:21:44.711Z,11.35
2018-04-14T12:24:11.705Z,10.98
2018-04-14T12:26:38.701Z,11.98
2018-04-14T12:29:05.691Z,8.43
2018-04-14T12:31:32.718Z,10.25
2018-04-14T12:33:59.803Z,16.95
2018-04-14T12:36:26.798Z,15.45
2018-04-14T12:38:53.798Z,13.20
2018-04-14T12:41:20.843Z,16.25
2018-04-14T12:43:47.846Z,17.47
2018-04-14T12:46:14.883Z,14.45
2018-04-14T12:48:41.943Z,12.13
2018-04-14T12:51:09.011Z,14.83
2018-04-14T12:53:36.792Z,9.03
2018-04-14T12:56:03.796Z,13.63
2018-04-14T12:58:30.817Z,10.27
2018-04-14T13:00:57.783Z,13.20
2018-04-14T13:03:24.811Z,8.60
2018-04-14T13:05:51.803Z,11.47
2018-04-14T13:08:19.575Z,11.33
2018-04-14T13:10:47.318Z,9.97
2018-04-14T13:13:15.796Z,10.73
2018-04-14T13:15:42.966Z,10.07
2018-04-14T13:18:09.996Z,11.38
2018-04-14T13:20:37.015Z,13.27
2018-04-14T13:23:04.040Z,14.87
2018-04-14T13:25:31.009Z,13.77
2018-04-14T13:27:57.989Z,8.70
2018-04-14T13:30:25.038Z,8.80
2018-04-14T13:32:52.071Z,11.57
2018-04-14T13:35:19.069Z,13.53
2018-04-14T13:37:46.101Z,15.93
2018-04-14T13:40:13.813Z,10.37
2018-04-14T13:42:41.513Z,15.10
2018-04-14T13:45:08.493Z,12.90
2018-04-14T13:47:35.483Z,12.13
2018-04-14T13:50:02.460Z,12.67
2018-04-14T13:52:29.495Z,12.27
2018-04-14T13:54:56.552Z,14.47
2018-04-14T13:57:23.515Z,9.43
2018-04-14T13:59:50.498Z,11.73
2018-04-14T14:02:17.479Z,11.17
2018-04-14T14:04:44.548Z,11.27
2018-04-14T14:07:11.515Z,9.23
2018-04-14T14:09:38.463Z,9.93
2018-04-14T14:12:05.473Z,10.27
2018-04-14T14:14:33.252Z,8.37
2018-04-14T14:17:01.012Z,9.57
2018-04-14T14:19:28.723Z,12.40
2018-04-14T14:21:55.719Z,12.87
2018-04-14T14:24:25.413Z,11.30
2018-04-14T14:26:52.573Z,9.73
2018-04-14T14:29:20.329Z,7.80
2018-04-14T14:31:47.373Z,10.70
2018-04-14T14:34:14.348Z,6.97
2018-04-14T14:36:41.333Z,10.23
2018-04-14T14:39:08.341Z,15.57
2018-04-14T14:41:35.333Z,9.73
2018-04-14T14:44:02.339Z,14.80
2018-04-14T14:46:29.353Z,12.33
2018-04-14T14:48:56.395Z,9.57
2018-04-14T14:51:23.413Z,6.17
2018-04-14T14:53:50.444Z,10.57
2018-04-14T14:56:17.431Z,9.47
2018-04-14T14:58:44.408Z,9.43
2018-04-14T15:01:12.278Z,11.27
2018-04-14T15:03:39.998Z,9.77
2018-04-14T15:06:07.024Z,7.43
2018-04-14T15:08:34.101Z,7.20
2018-04-14T15:11:01.084Z,8.67
2018-04-14T15:13:28.091Z,8.87
2018-04-14T15:15:55.095Z,7.60
2018-04-14T15:18:22.066Z,9.87
2018-04-14T15:20:49.065Z,9.70
2018-04-14T15:23:16.135Z,7.60
2018-04-14T15:25:43.250Z,6.93
2018-04-14T15:28:10.283Z,11.33
2018-04-14T15:30:37.364Z,9.43
2018-04-14T15:33:04.447Z,10.10
2018-04-14T15:35:31.517Z,10.30
2018-04-14T15:37:58.554Z,10.07
2018-04-14T15:40:25.646Z,9.63
2018-04-14T15:42:53.451Z,5.20
2018-04-14T15:45:20.526Z,7.87
2018-04-14T15:47:47.608Z,8.10
2018-04-14T15:50:14.643Z,9.03
2018-04-14T15:52:41.716Z,10.30
2018-04-14T15:55:08.806Z,10.27
2018-04-14T15:57:35.883Z,7.03
2018-04-14T16:00:04.736Z,10.83
2018-04-14T16:02:31.796Z,6.97
2018-04-14T16:04:58.889Z,13.13
2018-04-14T16:07:25.983Z,7.43
2018-04-14T16:09:54.026Z,10.07
2018-04-14T16:12:21.044Z,10.93
2018-04-14T16:14:48.816Z,10.37
2018-04-14T16:17:15.856Z,6.97
2018-04-14T16:19:43.659Z,8.73
2018-04-14T16:22:10.796Z,8.53
2018-04-14T16:24:37.866Z,8.77
2018-04-14T16:27:04.935Z,6.97
2018-04-14T16:29:32.007Z,8.37
2018-04-14T16:31:59.843Z,8.80
2018-04-14T16:34:27.076Z,10.10
2018-04-14T16:36:54.169Z,11.03
2018-04-14T16:39:21.217Z,9.40
2018-04-14T16:41:48.300Z,6.90
2018-04-14T16:44:15.358Z,11.43
2018-04-14T16:46:42.432Z,9.73
2018-04-14T16:49:09.455Z,12.17
2018-04-14T16:51:36.512Z,8.60
2018-04-14T16:54:03.560Z,8.00
2018-04-14T16:56:30.662Z,8.70
2018-04-14T16:58:58.490Z,8.93
2018-04-14T17:01:26.353Z,9.80
2018-04-14T17:03:53.415Z,11.20
2018-04-14T17:06:21.223Z,6.53
2018-04-14T17:08:48.312Z,10.40
2018-04-14T17:11:15.458Z,6.67
2018-04-14T17:13:42.616Z,7.50
2018-04-14T17:16:09.808Z,8.30
2018-04-14T17:18:37.656Z,7.30
2018-04-14T17:21:04.730Z,15.53
2018-04-14T17:23:32.523Z,4.70
2018-04-14T17:25:59.570Z,6.47
2018-04-14T17:28:26.700Z,11.23
2018-04-14T17:30:54.474Z,8.70
2018-04-14T17:33:21.653Z,5.87
2018-04-14T17:35:48.708Z,8.30
2018-04-14T17:38:15.783Z,8.30
2018-04-14T17:40:43.708Z,6.50
2018-04-14T17:43:10.789Z,11.43
2018-04-14T17:45:37.946Z,8.10
2018-04-14T17:48:05.009Z,9.87
2018-04-14T17:50:32.834Z,8.97
2018-04-14T17:52:59.898Z,7.30
2018-04-14T17:55:27.032Z,7.53
2018-04-14T17:57:54.130Z,10.33
2018-04-14T18:00:21.999Z,7.17
2018-04-14T18:02:49.904Z,6.97
2018-04-14T18:05:17.005Z,6.73
2018-04-14T18:07:44.821Z,5.67
2018-04-14T18:10:11.907Z,5.67
2018-04-14T18:12:38.931Z,5.20
2018-04-14T18:15:05.955Z,5.20
2018-04-14T18:17:33.045Z,5.57
2018-04-14T18:20:00.112Z,4.17
2018-04-14T18:22:27.270Z,8.87
2018-04-14T18:24:54.303Z,4.97
2018-04-14T18:27:22.057Z,12.80
2018-04-14T18:29:49.236Z,5.80
2018-04-14T18:32:16.275Z,5.77
2018-04-14T18:34:43.343Z,4.93
2018-04-14T18:37:10.445Z,7.07
2018-04-14T18:39:37.435Z,5.83
2018-04-14T18:42:04.476Z,13.13
2018-04-14T18:44:31.528Z,8.43
2018-04-14T18:46:58.648Z,12.87
2018-04-14T18:49:25.709Z,7.90
2018-04-14T18:51:53.527Z,19.27
2018-04-14T18:54:20.583Z,9.50
2018-04-14T18:56:47.577Z,8.87
2018-04-14T18:59:14.927Z,5.97
2018-04-14T19:01:41.980Z,7.40
2018-04-14T19:04:14.645Z,5.07
2018-04-14T19:06:41.792Z,5.20
2018-04-14T19:09:10.212Z,3.90
2018-04-14T19:11:37.229Z,5.00
2018-04-14T19:14:04.983Z,5.27
2018-04-14T19:16:32.766Z,4.57
2018-04-14T19:19:00.539Z,7.20
2018-04-14T19:21:27.563Z,5.90
2018-04-14T19:23:55.321Z,7.10
2018-04-14T19:26:22.414Z,6.07
2018-04-14T19:28:49.484Z,8.30
2018-04-14T19:31:16.509Z,4.23
2018-04-14T19:33:44.614Z,4.23
2018-04-14T19:36:12.398Z,3.87
2018-04-14T19:38:39.414Z,7.10
2018-04-14T19:41:06.461Z,3.87
2018-04-14T19:43:33.488Z,3.37
2018-04-14T19:46:00.577Z,5.50
2018-04-14T19:48:27.659Z,7.03
2018-04-14T19:50:56.216Z,4.53
2018-04-14T19:53:23.211Z,5.40
2018-04-14T19:55:50.226Z,4.37
2018-04-14T19:58:17.996Z,3.73
2018-04-14T20:00:45.774Z,4.00
2018-04-14T20:03:13.567Z,5.50
2018-04-14T20:05:40.652Z,4.07
2018-04-14T20:08:07.629Z,5.00
2018-04-14T20:10:35.425Z,6.13
2018-04-14T20:13:02.425Z,5.50
2018-04-14T20:15:30.181Z,6.73
2018-04-14T20:17:57.986Z,6.73
2018-04-14T20:20:25.747Z,4.33
2018-04-14T20:22:53.492Z,5.70
2018-04-14T20:25:21.242Z,4.27
2018-04-14T20:27:48.241Z,4.70
2018-04-14T20:30:15.256Z,4.07
2018-04-14T20:32:42.399Z,4.07
2018-04-14T20:35:09.434Z,5.67
2018-04-14T20:37:36.556Z,6.10
2018-04-14T20:40:03.632Z,6.60
2018-04-14T20:42:30.686Z,4.50
2018-04-14T20:44:58.491Z,4.03
2018-04-14T20:47:25.531Z,3.00
2018-04-14T20:49:52.563Z,4.20
2018-04-14T20:52:19.674Z,6.77
2018-04-14T20:54:46.750Z,3.53
2018-04-14T20:57:14.594Z,6.50
2018-04-14T20:59:41.677Z,3.47
2018-04-14T21:02:09.505Z,6.97
2018-04-14T21:04:36.565Z,4.47
2018-04-14T21:07:04.493Z,5.57
2018-04-14T21:09:31.623Z,3.77
2018-04-14T21:11:58.688Z,3.10
2018-04-14T21:14:26.665Z,4.27
2018-04-14T21:16:53.718Z,5.10
2018-04-14T21:19:20.801Z,3.47
2018-04-14T21:21:47.861Z,3.43
2018-04-14T21:24:14.978Z,4.83
2018-04-14T21:26:42.051Z,4.00
2018-04-14T21:29:09.865Z,3.50
2018-04-14T21:31:36.951Z,5.70
2018-04-14T21:34:04.021Z,4.60
2018-04-14T21:36:31.861Z,5.67
2018-04-14T21:39:00.560Z,2.47
2018-04-14T21:41:28.343Z,5.13
2018-04-14T21:43:56.167Z,6.93
2018-04-14T21:46:23.271Z,5.20
2018-04-14T21:48:50.359Z,6.43
2018-04-14T21:51:17.498Z,4.60
2018-04-14T21:53:44.563Z,4.63
2018-04-14T21:56:11.648Z,5.00
2018-04-14T21:58:39.431Z,5.20
2018-04-14T22:01:07.725Z,3.73
2018-04-14T22:03:34.900Z,3.90
2018-04-14T22:06:01.963Z,4.97
2018-04-14T22:08:29.055Z,5.30
2018-04-14T22:10:56.263Z,4.03
2018-04-14T22:13:23.344Z,4.03
2018-04-14T22:15:50.474Z,4.17
2018-04-14T22:18:17.563Z,3.13
2018-04-14T22:20:44.596Z,6.10
2018-04-14T22:23:11.665Z,5.23
2018-04-14T22:25:38.729Z,4.30
2018-04-14T22:28:05.796Z,3.80
2018-04-14T22:30:32.834Z,5.17
2018-04-14T22:32:59.894Z,2.63
2018-04-14T22:35:26.961Z,6.30
2018-04-14T22:37:54.116Z,4.57
2018-04-14T22:40:21.919Z,3.70
2018-04-14T22:42:49.068Z,4.93
2018-04-14T22:45:16.127Z,4.40
2018-04-14T22:47:43.219Z,4.70
2018-04-14T22:50:11.026Z,5.23
2018-04-14T22:52:38.078Z,5.97
2018-04-14T22:55:05.171Z,11.10
2018-04-14T22:57:32.351Z,6.40
2018-04-14T23:00:00.099Z,4.23
2018-04-14T23:02:27.911Z,4.33
2018-04-14T23:04:55.034Z,4.00
2018-04-14T23:07:22.814Z,3.83
2018-04-14T23:09:49.898Z,3.93
2018-04-14T23:12:17.041Z,5.97
2018-04-14T23:14:44.823Z,5.37
2018-04-14T23:17:12.363Z,2.80
2018-04-14T23:19:39.432Z,3.90
2018-04-14T23:22:06.463Z,4.60
2018-04-14T23:24:33.505Z,3.20
2018-04-14T23:27:00.610Z,4.60
2018-04-14T23:29:28.523Z,4.73
2018-04-14T23:31:55.766Z,2.40
2018-04-14T23:34:22.821Z,2.83
2018-04-14T23:36:50.850Z,4.20
2018-04-14T23:39:18.821Z,3.47
2018-04-14T23:41:45.951Z,3.77
2018-04-14T23:44:13.816Z,4.57
2018-04-14T23:46:41.591Z,4.07
2018-04-14T23:49:09.403Z,3.03
2018-04-14T23:51:36.566Z,5.10
2018-04-14T23:54:03.593Z,3.83
2018-04-14T23:56:30.790Z,4.00
2018-04-14T23:58:57.943Z,1.60
